Time;durP1;ratioP1;P1;durP2;ratioP2;P2;SDS_P1;SDS_P2;PMS_P1;PMS_P2;Temp;Humidity;BMP_temperature;BMP_pressure;BME280_temperature;BME280_humidity;BME280_pressure;Samples;Min_cycle;Max_cycle;Signal;HPM_P1;HPM_P2
2023/03/04 00:00:29;;;;;;;;;;;;;;;4.19;73.06;100625.00;107537;1254;124472;-81
2023/03/04 00:03:16;;;;;;;;;;;;;;;4.19;73.19;100626.04;107551;1260;72342;-82
2023/03/04 00:05:43;;;;;;;;;;;;;;;4.21;73.18;100619.67;107704;1258;124957;-81
2023/03/04 00:08:10;;;;;;;;;;;;;;;4.23;73.24;100622.08;107706;1254;60070;-80
2023/03/04 00:10:37;;;;;;;;;;;;;;;4.28;73.22;100623.50;107490;1257;124723;-80
2023/03/04 00:13:04;;;;;;;;;;;;;;;4.30;73.32;100619.95;107580;1260;66627;-80
2023/03/04 00:15:31;;;;;;;;;;;;;;;4.33;73.37;100620.44;108089;1254;72400;-81
2023/03/04 00:17:58;;;;;;;;;;;;;;;4.36;73.33;100617.96;108018;1258;124674;-80
2023/03/04 00:20:25;;;;;;;;;;;;;;;4.37;73.28;100613.52;107982;1260;61127;-80
2023/03/04 00:22:52;;;;;;;;;;;;;;;4.41;73.34;100607.79;107812;1257;123932;-81
2023/03/04 00:25:19;;;;;;;;;;;;;;;4.44;73.30;100612.80;107558;1257;67047;-81
2023/03/04 00:27:46;;;;;;;;;;;;;;;4.44;73.22;100605.34;107547;1260;70466;-80
2023/03/04 00:30:13;;;;;;;;;;;;;;;4.44;73.16;100604.45;107532;1254;124379;-81
2023/03/04 00:32:40;;;;;;;;;;;;;;;4.44;73.27;100604.63;107853;1254;61009;-84
2023/03/04 00:35:07;;;;;;;;;;;;;;;4.45;73.29;100601.73;107344;1254;123657;-85
2023/03/04 00:37:40;;;;;;;;;;;;;;;4.46;73.20;100601.44;107292;1254;65709;-84
2023/03/04 00:40:09;;;;;;;;;;;;;;;4.46;73.26;100599.35;107854;1257;70531;-80
2023/03/04 00:42:37;;;;;;;;;;;;;;;4.46;73.23;100594.48;108391;1254;59575;-79
2023/03/04 00:45:04;;;;;;;;;;;;;;;4.45;73.17;100589.41;108057;1254;61129;-79
2023/03/04 00:47:33;;;;;;;;;;;;;;;4.46;73.24;100588.92;107119;1256;124851;-83
2023/03/04 00:50:00;;;;;;;;;;;;;;;4.47;73.22;100583.58;107372;1257;65947;-83
2023/03/04 00:52:27;;;;;;;;;;;;;;;4.46;73.18;100579.88;107308;1254;124795;-80
2023/03/04 00:54:54;;;;;;;;;;;;;;;4.47;73.30;100575.59;107634;1254;61301;-79
2023/03/04 00:57:21;;;;;;;;;;;;;;;4.47;73.37;100564.82;107620;1256;62553;-80
2023/03/04 00:59:48;;;;;;;;;;;;;;;4.50;73.29;100564.59;107597;1254;125028;-80
2023/03/04 01:02:15;;;;;;;;;;;;;;;4.52;73.23;100560.88;107727;1257;67332;-79
2023/03/04 01:04:42;;;;;;;;;;;;;;;4.54;73.16;100559.55;107876;1256;125405;-80
2023/03/04 01:07:11;;;;;;;;;;;;;;;4.54;73.18;100551.73;107802;1257;61260;-83
2023/03/04 01:09:47;;;;;;;;;;;;;;;4.54;73.05;100548.61;107446;1257;60057;-83
2023/03/04 01:12:16;;;;;;;;;;;;;;;4.52;73.04;100545.92;107274;1257;124088;-83
2023/03/04 01:14:43;;;;;;;;;;;;;;;4.44;72.79;100538.98;107500;1257;67199;-84
2023/03/04 01:17:11;;;;;;;;;;;;;;;4.37;72.94;100535.66;107581;1257;124162;-84
2023/03/04 01:19:38;;;;;;;;;;;;;;;4.27;72.99;100527.94;107678;1258;60510;-84
2023/03/04 01:22:05;;;;;;;;;;;;;;;4.18;72.98;100523.49;107954;1256;61720;-84
2023/03/04 01:24:32;;;;;;;;;;;;;;;4.07;72.96;100520.89;107924;1256;124134;-84
2023/03/04 01:27:07;;;;;;;;;;;;;;;3.95;73.08;100516.01;108293;1257;67619;-83
2023/03/04 01:29:34;;;;;;;;;;;;;;;3.82;73.20;100508.98;108047;1257;124672;-83
2023/03/04 01:32:02;;;;;;;;;;;;;;;3.76;73.41;100506.09;108329;1257;60494;-83
2023/03/04 01:34:29;;;;;;;;;;;;;;;3.72;73.68;100507.92;107964;1257;124695;-84
2023/03/04 01:36:56;;;;;;;;;;;;;;;3.66;73.78;100506.11;107778;1255;74674;-84
2023/03/04 01:39:23;;;;;;;;;;;;;;;3.62;73.77;100501.37;107570;1257;67620;-79
2023/03/04 01:41:50;;;;;;;;;;;;;;;3.58;73.99;100499.27;108659;1258;124421;-80
2023/03/04 01:44:17;;;;;;;;;;;;;;;3.55;74.04;100496.88;108804;1255;59394;-80
2023/03/04 01:46:46;;;;;;;;;;;;;;;3.55;74.21;100500.17;108786;1258;124743;-80
2023/03/04 01:49:14;;;;;;;;;;;;;;;3.54;74.23;100502.41;108907;1256;74832;-79
2023/03/04 01:51:48;;;;;;;;;;;;;;;3.55;74.45;100498.98;107772;1257;65487;-80
2023/03/04 01:54:21;;;;;;;;;;;;;;;3.58;74.42;100501.52;107380;1257;125615;-84
2023/03/04 01:56:49;;;;;;;;;;;;;;;3.61;74.65;100502.91;107170;1257;61235;-83
2023/03/04 01:59:20;;;;;;;;;;;;;;;3.61;74.56;100498.76;107387;1256;124718;-84
2023/03/04 02:01:53;;;;;;;;;;;;;;;3.62;74.67;100500.36;107404;1257;73362;-84
2023/03/04 02:04:21;;;;;;;;;;;;;;;3.62;74.56;100497.42;108129;1257;124998;-79
2023/03/04 02:06:48;;;;;;;;;;;;;;;3.60;74.45;100490.88;108095;1254;72937;-79
2023/03/04 02:09:16;;;;;;;;;;;;;;;3.58;74.65;100493.72;108022;1254;60909;-79
2023/03/04 02:11:43;;;;;;;;;;;;;;;3.55;74.70;100489.40;108103;1256;124814;-79
2023/03/04 02:14:10;;;;;;;;;;;;;;;3.52;74.58;100487.20;108239;1254;74960;-84
2023/03/04 02:16:37;;;;;;;;;;;;;;;3.48;74.64;100486.70;107958;1257;124066;-80
2023/03/04 02:19:06;;;;;;;;;;;;;;;3.45;74.72;100488.92;107587;1254;72740;-84
2023/03/04 02:21:33;;;;;;;;;;;;;;;3.41;74.74;100490.66;107864;1256;61224;-79
2023/03/04 02:24:03;;;;;;;;;;;;;;;3.39;74.93;100487.81;107606;1254;125741;-85
2023/03/04 02:26:30;;;;;;;;;;;;;;;3.37;75.18;100484.21;107820;1256;74575;-85
2023/03/04 02:28:57;;;;;;;;;;;;;;;3.39;75.12;100487.60;107654;1257;124560;-80
2023/03/04 02:31:26;;;;;;;;;;;;;;;3.41;75.20;100482.52;107428;1260;72746;-80
2023/03/04 02:33:54;;;;;;;;;;;;;;;3.40;75.24;100480.71;107608;1260;61246;-79
2023/03/04 02:36:21;;;;;;;;;;;;;;;3.37;75.08;100480.92;107548;1254;124846;-79
2023/03/04 02:38:49;;;;;;;;;;;;;;;3.32;75.17;100476.71;107825;1254;75196;-80
2023/03/04 02:41:18;;;;;;;;;;;;;;;3.28;75.06;100478.23;107512;1258;124643;-85
2023/03/04 02:43:45;;;;;;;;;;;;;;;3.26;75.26;100476.20;107454;1259;70417;-84
2023/03/04 02:46:12;;;;;;;;;;;;;;;3.25;75.27;100478.59;107473;1256;61401;-84
2023/03/04 02:48:39;;;;;;;;;;;;;;;3.22;75.30;100476.35;107718;1254;59650;-80
2023/03/04 02:51:06;;;;;;;;;;;;;;;3.18;75.11;100477.23;107972;1254;75120;-80
2023/03/04 02:53:33;;;;;;;;;;;;;;;3.15;75.11;100477.05;107641;1256;124399;-80
2023/03/04 02:56:00;;;;;;;;;;;;;;;3.12;75.35;100474.66;107594;1257;72992;-81
2023/03/04 02:58:27;;;;;;;;;;;;;;;3.10;75.38;100471.41;107656;1254;125122;-81
2023/03/04 03:00:54;;;;;;;;;;;;;;;3.07;75.51;100476.30;107747;1254;59660;-81
2023/03/04 03:03:21;;;;;;;;;;;;;;;3.07;75.55;100473.19;107885;1254;74513;-81
2023/03/04 03:05:48;;;;;;;;;;;;;;;3.05;75.48;100470.81;107887;1254;124555;-80
2023/03/04 03:08:15;;;;;;;;;;;;;;;3.00;75.61;100469.89;107933;1254;73481;-80
2023/03/04 03:10:42;;;;;;;;;;;;;;;2.98;75.53;100467.02;107535;1260;123888;-80
2023/03/04 03:13:09;;;;;;;;;;;;;;;2.96;75.74;100467.77;107700;1254;60970;-81
2023/03/04 03:15:41;;;;;;;;;;;;;;;2.94;75.73;100468.52;108086;1254;72359;-80
2023/03/04 03:18:09;;;;;;;;;;;;;;;2.91;75.81;100474.10;107711;1257;126378;-80
2023/03/04 03:20:36;;;;;;;;;;;;;;;2.90;76.03;100479.75;107861;1254;72260;-81
2023/03/04 03:23:03;;;;;;;;;;;;;;;2.88;76.04;100483.51;107871;1254;125652;-81
2023/03/04 03:25:31;;;;;;;;;;;;;;;2.88;75.98;100483.82;108014;1254;60855;-81
2023/03/04 03:27:58;;;;;;;;;;;;;;;2.86;76.15;100482.20;108107;1254;75081;-81
2023/03/04 03:30:25;;;;;;;;;;;;;;;2.86;76.18;100477.85;107764;1254;124571;-81
2023/03/04 03:32:53;;;;;;;;;;;;;;;2.87;76.33;100480.65;107469;1256;72881;-84
2023/03/04 03:35:21;;;;;;;;;;;;;;;2.87;76.18;100481.39;107115;1254;124898;-84
2023/03/04 03:37:48;;;;;;;;;;;;;;;2.86;76.31;100477.16;107285;1254;59525;-84
2023/03/04 03:40:17;;;;;;;;;;;;;;;2.85;76.39;100466.67;107290;1254;125082;-83
2023/03/04 03:42:58;;;;;;;;;;;;;;;2.82;76.36;100466.35;107440;1259;67122;-84
2023/03/04 03:45:31;;;;;;;;;;;;;;;2.78;76.32;100465.81;107581;1254;71396;-84
2023/03/04 03:47:59;;;;;;;;;;;;;;;2.76;76.39;100464.48;107493;1254;124494;-85
2023/03/04 03:50:28;;;;;;;;;;;;;;;2.73;76.38;100471.10;107352;1254;60258;-85
2023/03/04 03:53:02;;;;;;;;;;;;;;;2.71;76.59;100469.27;107245;1254;124867;-85
2023/03/04 03:55:29;;;;;;;;;;;;;;;2.72;76.62;100468.98;107359;1256;65803;-85
2023/03/04 03:57:56;;;;;;;;;;;;;;;2.70;76.71;100470.98;107780;1254;72761;-84
2023/03/04 04:00:23;;;;;;;;;;;;;;;2.69;76.58;100469.86;107574;1254;125056;-81
2023/03/04 04:02:50;;;;;;;;;;;;;;;2.66;76.60;100471.06;107860;1257;60334;-81
2023/03/04 04:05:17;;;;;;;;;;;;;;;2.63;76.77;100465.23;107563;1256;124388;-81
2023/03/04 04:07:44;;;;;;;;;;;;;;;2.61;76.70;100465.26;108943;1256;65741;-81
2023/03/04 04:10:11;;;;;;;;;;;;;;;2.58;76.52;100458.02;109000;1256;72761;-81
2023/03/04 04:12:38;;;;;;;;;;;;;;;2.54;76.51;100457.83;108881;1256;125115;-81
2023/03/04 04:15:06;;;;;;;;;;;;;;;2.50;76.70;100460.36;108460;1255;61427;-80
2023/03/04 04:17:33;;;;;;;;;;;;;;;2.48;76.80;100459.25;107831;1256;125076;-80
2023/03/04 04:20:00;;;;;;;;;;;;;;;2.46;76.82;100464.15;108055;1256;65834;-79
2023/03/04 04:22:29;;;;;;;;;;;;;;;2.43;76.76;100460.35;107946;1257;124760;-80
2023/03/04 04:24:56;;;;;;;;;;;;;;;2.40;76.67;100460.71;107973;1260;60092;-80
2023/03/04 04:27:22;;;;;;;;;;;;;;;2.37;76.73;100458.49;108183;1256;61704;-80
2023/03/04 04:29:49;;;;;;;;;;;;;;;2.34;76.63;100461.80;107942;1256;125222;-80
2023/03/04 04:32:16;;;;;;;;;;;;;;;2.31;76.88;100462.69;107680;1256;67547;-80
2023/03/04 04:34:44;;;;;;;;;;;;;;;2.30;76.79;100463.30;107829;1257;125382;-80
2023/03/04 04:37:10;;;;;;;;;;;;;;;2.28;76.90;100470.11;108062;1256;60520;-80
2023/03/04 04:39:37;;;;;;;;;;;;;;;2.27;77.06;100468.16;108027;1259;60045;-80
2023/03/04 04:42:04;;;;;;;;;;;;;;;2.25;76.94;100466.14;107393;1257;125127;-80
2023/03/04 04:44:31;;;;;;;;;;;;;;;2.24;77.11;100466.79;107957;1256;67421;-80
2023/03/04 04:46:58;;;;;;;;;;;;;;;2.21;76.97;100465.59;107663;1257;124654;-81
2023/03/04 04:49:27;;;;;;;;;;;;;;;2.18;77.06;100463.53;107679;1257;61131;-81
2023/03/04 04:51:53;;;;;;;;;;;;;;;2.16;77.03;100458.90;107856;1257;59477;-80
2023/03/04 04:54:20;;;;;;;;;;;;;;;2.14;77.18;100458.32;107690;1257;124490;-80
2023/03/04 04:56:47;;;;;;;;;;;;;;;2.16;77.21;100462.72;107729;1256;67561;-80
2023/03/04 04:59:14;;;;;;;;;;;;;;;2.17;77.29;100460.54;107851;1256;124594;-80
2023/03/04 05:01:41;;;;;;;;;;;;;;;2.20;77.42;100461.88;107689;1257;59550;-80
2023/03/04 05:04:08;;;;;;;;;;;;;;;2.23;77.43;100464.48;107654;1256;60840;-80
2023/03/04 05:06:35;;;;;;;;;;;;;;;2.27;77.24;100464.89;107731;1257;124937;-81
2023/03/04 05:09:03;;;;;;;;;;;;;;;2.29;77.29;100461.54;107974;1257;65747;-81
2023/03/04 05:11:30;;;;;;;;;;;;;;;2.31;77.32;100459.93;107814;1257;124830;-80
2023/03/04 05:13:57;;;;;;;;;;;;;;;2.33;77.18;100457.59;108224;1254;59646;-80
2023/03/04 05:16:24;;;;;;;;;;;;;;;2.33;77.28;100455.52;108062;1254;125095;-80
2023/03/04 05:18:51;;;;;;;;;;;;;;;2.35;77.38;100458.02;108043;1254;73328;-80
2023/03/04 05:21:18;;;;;;;;;;;;;;;2.42;77.46;100460.11;107906;1257;65513;-80
2023/03/04 05:23:55;;;;;;;;;;;;;;;2.49;77.37;100461.01;107380;1256;124337;-84
2023/03/04 05:26:31;;;;;;;;;;;;;;;2.56;77.51;100460.35;107459;1254;59945;-84
2023/03/04 05:29:09;;;;;;;;;;;;;;;2.62;77.41;100459.10;107313;1256;124197;-84
2023/03/04 05:31:43;;;;;;;;;;;;;;;2.67;77.36;100462.15;107223;1256;75317;-84
2023/03/04 05:34:12;;;;;;;;;;;;;;;2.74;77.25;100463.52;107113;1256;65949;-83
2023/03/04 05:36:45;;;;;;;;;;;;;;;2.79;77.30;100463.46;107311;1256;124318;-83
2023/03/04 05:39:12;;;;;;;;;;;;;;;2.86;77.23;100464.84;107661;1256;60435;-84
2023/03/04 05:41:57;;;;;;;;;;;;;;;2.91;77.10;100465.80;107180;1257;125365;-83
2023/03/04 05:44:24;;;;;;;;;;;;;;;2.98;77.07;100463.02;107028;1257;74717;-83
2023/03/04 05:46:52;;;;;;;;;;;;;;;3.03;76.98;100459.46;107267;1254;125222;-84
2023/03/04 05:49:20;;;;;;;;;;;;;;;3.09;76.89;100459.06;107892;1254;71301;-80
2023/03/04 05:51:51;;;;;;;;;;;;;;;3.16;76.71;100467.54;108074;1256;61677;-81
2023/03/04 05:54:18;;;;;;;;;;;;;;;3.21;76.81;100471.64;107684;1256;124488;-84
2023/03/04 05:56:51;;;;;;;;;;;;;;;3.26;76.48;100470.70;107669;1254;73361;-85
2023/03/04 05:59:19;;;;;;;;;;;;;;;3.32;76.42;100472.69;107469;1254;124612;-84
2023/03/04 06:01:46;;;;;;;;;;;;;;;3.38;76.31;100472.45;107758;1255;72709;-84
2023/03/04 06:04:13;;;;;;;;;;;;;;;3.42;76.19;100472.34;108013;1254;61445;-86
2023/03/04 06:06:45;;;;;;;;;;;;;;;3.48;76.03;100476.25;107801;1255;60540;-85
2023/03/04 06:09:29;;;;;;;;;;;;;;;3.54;75.92;100475.13;107840;1256;74605;-86
2023/03/04 06:11:56;;;;;;;;;;;;;;;3.58;75.80;100472.41;107553;1254;124173;-85
2023/03/04 06:14:36;;;;;;;;;;;;;;;3.63;75.50;100470.02;107756;1254;72483;-86
2023/03/04 06:17:05;;;;;;;;;;;;;;;3.66;75.56;100465.52;107617;1254;123730;-86
2023/03/04 06:19:32;;;;;;;;;;;;;;;3.67;75.25;100465.71;107729;1255;60077;-85
2023/03/04 06:22:00;;;;;;;;;;;;;;;3.70;75.17;100465.19;107985;1256;74378;-79
2023/03/04 06:24:27;;;;;;;;;;;;;;;3.73;75.18;100467.22;107857;1256;124622;-87
2023/03/04 06:26:54;;;;;;;;;;;;;;;3.77;75.03;100467.21;107519;1256;71779;-80
2023/03/04 06:29:22;;;;;;;;;;;;;;;3.79;75.01;100464.55;107687;1256;125084;-86
2023/03/04 06:31:49;;;;;;;;;;;;;;;3.83;75.07;100467.00;107623;1254;60100;-87
2023/03/04 06:34:16;;;;;;;;;;;;;;;3.87;74.90;100467.52;107715;1258;125187;-79
2023/03/04 06:36:43;;;;;;;;;;;;;;;3.91;74.85;100471.89;108178;1254;67415;-79
2023/03/04 06:39:10;;;;;;;;;;;;;;;3.94;74.66;100471.02;107532;1257;71341;-79
2023/03/04 06:41:37;;;;;;;;;;;;;;;4.00;74.60;100473.16;107478;1254;124822;-85
2023/03/04 06:44:04;;;;;;;;;;;;;;;4.04;74.59;100472.89;107513;1254;60469;-79
2023/03/04 06:46:38;;;;;;;;;;;;;;;4.09;74.35;100476.02;107425;1255;124783;-79
2023/03/04 06:49:05;;;;;;;;;;;;;;;4.13;74.19;100475.86;107860;1255;67071;-80
2023/03/04 06:51:32;;;;;;;;;;;;;;;4.17;73.93;100482.48;108108;1254;72680;-81
2023/03/04 06:53:59;;;;;;;;;;;;;;;4.19;73.72;100479.98;107665;1256;124602;-81
2023/03/04 06:56:26;;;;;;;;;;;;;;;4.21;73.75;100480.09;107699;1256;59980;-80
2023/03/04 06:58:53;;;;;;;;;;;;;;;4.27;73.51;100482.09;107684;1259;124581;-81
2023/03/04 07:01:24;;;;;;;;;;;;;;;4.28;73.25;100480.41;107880;1260;67055;-79
2023/03/04 07:03:51;;;;;;;;;;;;;;;4.32;73.38;100482.81;107581;1254;71151;-85
2023/03/04 07:06:25;;;;;;;;;;;;;;;4.34;72.86;100481.70;107312;1260;124536;-85
2023/03/04 07:08:58;;;;;;;;;;;;;;;4.35;72.70;100482.25;107396;1254;61208;-86
2023/03/04 07:11:38;;;;;;;;;;;;;;;4.39;72.56;100483.13;107197;1255;124562;-86
2023/03/04 07:14:14;;;;;;;;;;;;;;;4.44;72.42;100488.04;107357;1255;65452;-84
2023/03/04 07:16:42;;;;;;;;;;;;;;;4.50;72.36;100492.30;107412;1254;123851;-83
2023/03/04 07:19:15;;;;;;;;;;;;;;;4.57;72.20;100493.66;107427;1260;59319;-84
2023/03/04 07:21:48;;;;;;;;;;;;;;;4.60;71.86;100491.20;107406;1257;61324;-84
2023/03/04 07:24:17;;;;;;;;;;;;;;;4.63;71.85;100498.64;107247;1256;123975;-83
2023/03/04 07:26:45;;;;;;;;;;;;;;;4.63;71.47;100497.41;107812;1254;67499;-84
2023/03/04 07:29:15;;;;;;;;;;;;;;;4.66;71.47;100494.94;107453;1254;124087;-83
2023/03/04 07:31:50;;;;;;;;;;;;;;;4.71;71.37;100491.69;107254;1257;59246;-84
2023/03/04 07:34:20;;;;;;;;;;;;;;;4.73;71.22;100500.13;107481;1254;124261;-83
2023/03/04 07:36:53;;;;;;;;;;;;;;;4.76;71.23;100501.82;107692;1254;74716;-86
2023/03/04 07:39:20;;;;;;;;;;;;;;;4.80;71.05;100498.89;107583;1254;65815;-84
2023/03/04 07:42:06;;;;;;;;;;;;;;;4.85;70.90;100499.64;107229;1254;125552;-83
2023/03/04 07:47:29;;;;;;;;;;;;;;;5.02;70.56;100501.39;107461;1254;124060;-84
2023/03/04 07:50:07;;;;;;;;;;;;;;;5.08;70.37;100507.89;107253;1254;74685;-86
2023/03/04 07:52:38;;;;;;;;;;;;;;;5.12;70.25;100508.09;107270;1254;124351;-85
2023/03/04 07:55:30;;;;;;;;;;;;;;;5.18;69.87;100512.50;107258;1259;73231;-86
2023/03/04 07:58:10;;;;;;;;;;;;;;;5.13;69.35;100513.87;107159;1255;60066;-85
2023/03/04 08:03:28;;;;;;;;;;;;;;;5.07;68.80;100515.71;107357;1256;74338;-83
2023/03/04 08:05:55;;;;;;;;;;;;;;;5.09;68.20;100522.19;107163;1254;123889;-83
2023/03/04 08:08:23;;;;;;;;;;;;;;;5.05;67.36;100518.23;108065;1254;71461;-82
2023/03/04 08:10:49;;;;;;;;;;;;;;;5.00;65.88;100522.87;107391;1256;123905;-85
2023/03/04 08:13:16;;;;;;;;;;;;;;;4.90;65.21;100519.80;107541;1257;60029;-83
2023/03/04 08:15:43;;;;;;;;;;;;;;;4.82;64.38;100526.25;107793;1254;74789;-83
2023/03/04 08:18:11;;;;;;;;;;;;;;;4.78;64.48;100522.77;107480;1254;124279;-84
2023/03/04 08:20:40;;;;;;;;;;;;;;;4.77;63.72;100523.95;107609;1254;71131;-82
2023/03/04 08:23:07;;;;;;;;;;;;;;;4.80;63.82;100520.41;107587;1254;123885;-80
2023/03/04 08:25:36;;;;;;;;;;;;;;;4.85;62.61;100525.67;107752;1254;61171;-81
2023/03/04 08:28:12;;;;;;;;;;;;;;;4.82;61.35;100528.36;107660;1260;73416;-82
2023/03/04 08:30:51;;;;;;;;;;;;;;;4.79;60.64;100531.33;107536;1260;124016;-83
2023/03/04 08:33:18;;;;;;;;;;;;;;;4.75;59.42;100529.94;107595;1256;72677;-82
2023/03/04 08:35:47;;;;;;;;;;;;;;;4.77;59.44;100532.98;107616;1255;124277;-83
2023/03/04 08:38:14;;;;;;;;;;;;;;;4.75;58.85;100533.22;107958;1257;61072;-82
2023/03/04 08:40:45;;;;;;;;;;;;;;;4.72;58.03;100535.90;107532;1254;124503;-86
2023/03/04 08:43:14;;;;;;;;;;;;;;;4.74;58.42;100538.07;107836;1255;65808;-85
2023/03/04 08:45:41;;;;;;;;;;;;;;;4.75;57.20;100543.50;107867;1255;72514;-86
2023/03/04 08:48:10;;;;;;;;;;;;;;;4.69;56.80;100546.17;107260;1254;123973;-86
2023/03/04 08:50:38;;;;;;;;;;;;;;;4.65;56.64;100543.58;107498;1254;61276;-84
2023/03/04 08:53:21;;;;;;;;;;;;;;;4.66;56.45;100544.13;107265;1258;123715;-86
2023/03/04 08:55:54;;;;;;;;;;;;;;;4.73;57.05;100541.14;107456;1254;67516;-86
2023/03/04 08:58:23;;;;;;;;;;;;;;;4.80;56.23;100539.56;107173;1257;123890;-84
2023/03/04 09:00:51;;;;;;;;;;;;;;;4.83;55.70;100550.10;107579;1254;61355;-80
2023/03/04 09:03:19;;;;;;;;;;;;;;;4.84;55.50;100549.65;107659;1256;61167;-81
2023/03/04 09:05:46;;;;;;;;;;;;;;;4.84;55.24;100549.30;107726;1254;123847;-82
2023/03/04 09:08:13;;;;;;;;;;;;;;;4.87;55.18;100553.77;107819;1254;67560;-82
2023/03/04 09:10:40;;;;;;;;;;;;;;;4.92;54.46;100563.39;107628;1254;124198;-81
2023/03/04 09:13:10;;;;;;;;;;;;;;;4.86;53.64;100559.31;107848;1254;62127;-80
2023/03/04 09:15:37;;;;;;;;;;;;;;;4.81;53.85;100557.85;108991;1254;59051;-81
2023/03/04 09:18:04;;;;;;;;;;;;;;;4.80;53.57;100562.86;108911;1254;124277;-82
2023/03/04 09:20:32;;;;;;;;;;;;;;;4.81;51.99;100562.91;108934;1256;67017;-86
2023/03/04 09:23:08;;;;;;;;;;;;;;;4.83;51.44;100562.60;107928;1255;124131;-86
2023/03/04 09:25:36;;;;;;;;;;;;;;;4.84;50.61;100558.30;107585;1254;60555;-80
2023/03/04 09:28:15;;;;;;;;;;;;;;;4.85;50.97;100561.88;107515;1256;60116;-85
2023/03/04 09:30:43;;;;;;;;;;;;;;;4.91;50.35;100554.59;107362;1256;122809;-81
2023/03/04 09:33:23;;;;;;;;;;;;;;;4.93;50.72;100559.75;107058;1257;67597;-84
2023/03/04 09:39:10;;;;;;;;;;;;;;;5.01;50.07;100566.41;106976;1259;60482;-86
2023/03/04 09:41:47;;;;;;;;;;;;;;;4.96;48.42;100568.09;106871;1257;225301;-86
2023/03/04 09:57:46;;;;;;;;;;;;;;;4.81;47.89;100574.70;107283;1254;61189;-86
2023/03/04 10:00:21;;;;;;;;;;;;;;;4.81;47.91;100577.66;107432;1254;124109;-84
2023/03/04 10:03:00;;;;;;;;;;;;;;;4.77;47.75;100580.81;107680;1256;65751;-84
2023/03/04 10:05:27;;;;;;;;;;;;;;;4.83;48.24;100578.45;107496;1255;123759;-84
2023/03/04 10:08:12;;;;;;;;;;;;;;;4.85;47.44;100582.89;107644;1257;59367;-82
2023/03/04 10:10:39;;;;;;;;;;;;;;;4.88;48.48;100578.68;107503;1254;124383;-84
2023/03/04 10:16:54;;;;;;;;;;;;;;;5.03;47.68;100591.35;107277;1254;123986;-85
2023/03/04 10:19:59;;;;;;;;;;;;;;;4.94;46.90;100585.70;107545;1257;72631;-86
2023/03/04 10:22:29;;;;;;;;;;;;;;;4.86;46.20;100607.79;107205;1256;124501;-87
2023/03/04 10:25:16;;;;;;;;;;;;;;;4.77;45.73;100605.98;107393;1256;60356;-87
2023/03/04 10:28:15;;;;;;;;;;;;;;;4.66;45.25;100600.48;107268;1259;73150;-86
2023/03/04 10:31:01;;;;;;;;;;;;;;;4.61;44.45;100602.13;107243;1254;123711;-88
2023/03/04 10:33:42;;;;;;;;;;;;;;;4.60;44.22;100605.55;107502;1254;72354;-85
2023/03/04 10:36:47;;;;;;;;;;;;;;;4.42;43.29;100606.79;107195;1255;124369;-84
2023/03/04 10:39:30;;;;;;;;;;;;;;;4.28;43.62;100609.83;107494;1258;62195;-84
2023/03/04 10:42:17;;;;;;;;;;;;;;;4.19;43.53;100602.07;107255;1256;124804;-84
2023/03/04 10:45:01;;;;;;;;;;;;;;;4.11;43.93;100594.74;107223;1257;65585;-84
2023/03/04 10:47:30;;;;;;;;;;;;;;;4.02;44.15;100593.41;107279;1255;123856;-84
2023/03/04 10:50:04;;;;;;;;;;;;;;;3.95;44.83;100586.15;107426;1255;61090;-84
2023/03/04 10:52:45;;;;;;;;;;;;;;;3.92;45.05;100584.42;107355;1259;124151;-80
2023/03/04 10:55:23;;;;;;;;;;;;;;;3.79;45.08;100581.38;107173;1257;72922;-85
2023/03/04 10:57:51;;;;;;;;;;;;;;;3.63;44.91;100581.77;107542;1257;65722;-80
2023/03/04 11:00:22;;;;;;;;;;;;;;;3.45;44.15;100586.58;107397;1261;124240;-81
2023/03/04 11:02:49;;;;;;;;;;;;;;;3.18;41.72;100618.20;107904;1257;59608;-80
2023/03/04 11:05:20;;;;;;;;;;;;;;;2.96;42.17;100609.36;107404;1255;123815;-81
2023/03/04 11:07:48;;;;;;;;;;;;;;;2.83;42.22;100600.20;107915;1255;75245;-80
2023/03/04 11:10:15;;;;;;;;;;;;;;;2.80;41.20;100617.54;107783;1257;65507;-81
2023/03/04 11:12:47;;;;;;;;;;;;;;;2.79;40.87;100618.35;107759;1255;123552;-81
2023/03/04 11:15:18;;;;;;;;;;;;;;;2.76;39.25;100627.21;107937;1257;61052;-80
2023/03/04 11:17:47;;;;;;;;;;;;;;;2.73;39.39;100623.75;107607;1256;125107;-80
2023/03/04 11:20:30;;;;;;;;;;;;;;;2.68;39.33;100615.55;107789;1257;74501;-81
2023/03/04 11:22:59;;;;;;;;;;;;;;;2.67;39.98;100612.17;107828;1257;124373;-81
2023/03/04 11:25:27;;;;;;;;;;;;;;;2.70;40.74;100613.56;107668;1255;72711;-81
2023/03/04 11:27:55;;;;;;;;;;;;;;;2.75;40.70;100615.52;107803;1259;59965;-82
2023/03/04 11:30:25;;;;;;;;;;;;;;;2.78;41.30;100605.66;107824;1258;123672;-86
2023/03/04 11:32:53;;;;;;;;;;;;;;;2.85;41.40;100630.33;107713;1257;74658;-85
2023/03/04 11:38:19;;;;;;;;;;;;;;;2.86;41.42;100618.39;107447;1259;70232;-85
2023/03/04 11:40:59;;;;;;;;;;;;;;;2.87;41.58;100614.48;107435;1254;123877;-84
2023/03/04 11:43:30;;;;;;;;;;;;;;;2.93;41.27;100616.70;107525;1254;60301;-84
2023/03/04 11:45:59;;;;;;;;;;;;;;;2.98;41.56;100625.06;107470;1256;73044;-84
2023/03/04 11:51:22;;;;;;;;;;;;;;;2.95;38.70;100662.04;107603;1257;72058;-84
2023/03/04 11:54:02;;;;;;;;;;;;;;;2.88;38.60;100629.59;107458;1257;124552;-84
2023/03/04 11:56:48;;;;;;;;;;;;;;;2.90;39.12;100624.81;107724;1256;61342;-85
2023/03/04 11:59:15;;;;;;;;;;;;;;;2.90;37.37;100637.14;107660;1254;123857;-85
2023/03/04 12:01:54;;;;;;;;;;;;;;;2.85;38.73;100627.88;107924;1255;67100;-81
2023/03/04 12:04:21;;;;;;;;;;;;;;;2.89;39.26;100635.70;108555;1254;72649;-81
2023/03/04 12:06:49;;;;;;;;;;;;;;;2.90;37.43;100648.77;107996;1256;59327;-81
2023/03/04 12:09:19;;;;;;;;;;;;;;;2.87;37.47;100637.55;108001;1254;61116;-81
2023/03/04 12:11:48;;;;;;;;;;;;;;;2.86;37.35;100644.05;108217;1257;124248;-81
2023/03/04 12:14:24;;;;;;;;;;;;;;;2.81;38.23;100646.00;107982;1255;65892;-80
2023/03/04 12:17:04;;;;;;;;;;;;;;;2.83;38.30;100656.86;107869;1259;124129;-81
2023/03/04 12:19:34;;;;;;;;;;;;;;;2.82;37.53;100669.98;107793;1256;61110;-80
2023/03/04 12:22:13;;;;;;;;;;;;;;;2.76;37.01;100662.41;108172;1258;60469;-80
2023/03/04 12:24:49;;;;;;;;;;;;;;;2.71;36.91;100681.84;108878;1256;125926;-81
2023/03/04 12:27:35;;;;;;;;;;;;;;;2.69;36.50;100672.04;108997;1257;65922;-81
2023/03/04 12:30:06;;;;;;;;;;;;;;;2.72;36.73;100660.80;108795;1256;123828;-81
2023/03/04 12:32:35;;;;;;;;;;;;;;;2.74;36.43;100684.79;108824;1255;59554;-81
2023/03/04 12:35:11;;;;;;;;;;;;;;;2.71;36.21;100674.96;108812;1257;124685;-85
2023/03/04 12:37:40;;;;;;;;;;;;;;;2.70;36.96;100682.53;108874;1257;74512;-85
2023/03/04 12:40:24;;;;;;;;;;;;;;;2.66;36.33;100684.88;107922;1256;65692;-85
2023/03/04 12:43:01;;;;;;;;;;;;;;;2.65;36.87;100677.91;107530;1255;72583;-85
2023/03/04 12:45:48;;;;;;;;;;;;;;;2.70;36.33;100685.65;107705;1254;61234;-85
2023/03/04 12:48:15;;;;;;;;;;;;;;;2.70;37.03;100695.34;107302;1254;124471;-85
2023/03/04 12:50:42;;;;;;;;;;;;;;;2.74;36.75;100689.50;107767;1254;73598;-85
2023/03/04 12:53:16;;;;;;;;;;;;;;;2.85;37.78;100685.77;107640;1257;124054;-85
2023/03/04 12:55:45;;;;;;;;;;;;;;;2.90;36.97;100686.54;107909;1255;72720;-83
2023/03/04 12:58:17;;;;;;;;;;;;;;;2.85;37.52;100688.16;108060;1254;61377;-82
2023/03/04 13:00:48;;;;;;;;;;;;;;;2.89;37.98;100684.94;107897;1254;124325;-83
2023/03/04 13:03:24;;;;;;;;;;;;;;;2.99;38.58;100684.11;107934;1257;75388;-81
2023/03/04 13:05:57;;;;;;;;;;;;;;;3.14;38.61;100687.66;108057;1257;123877;-87
2023/03/04 13:08:44;;;;;;;;;;;;;;;3.11;36.94;100696.34;108028;1257;74085;-82
2023/03/04 13:11:27;;;;;;;;;;;;;;;3.08;37.51;100694.26;108200;1257;124568;-81
2023/03/04 13:14:00;;;;;;;;;;;;;;;3.00;37.20;100705.80;108436;1258;60532;-82
2023/03/04 13:16:28;;;;;;;;;;;;;;;2.88;36.92;100713.12;108193;1260;124740;-83
2023/03/04 13:18:55;;;;;;;;;;;;;;;2.77;37.37;100705.77;108135;1255;65396;-83
2023/03/04 13:21:28;;;;;;;;;;;;;;;2.75;37.31;100710.12;108061;1255;71407;-82